createdAt,value
2023-04-11T00:02:12.113Z,97548.75
2023-04-11T00:04:45.414Z,97538.41
2023-04-11T00:07:19.339Z,97534.16
2023-04-11T00:09:53.830Z,97531.47
2023-04-11T00:12:26.861Z,97520.56
2023-04-11T00:14:59.818Z,97506.41
2023-04-11T00:17:32.775Z,97500.84
2023-04-11T00:20:08.192Z,97499.63
2023-04-11T00:22:42.029Z,97496.53
2023-04-11T00:25:16.870Z,97475.78
2023-04-11T00:27:49.973Z,97468.59
2023-04-11T00:30:22.988Z,97460.38
2023-04-11T00:32:56.050Z,97451.31
2023-04-11T00:35:29.043Z,97452.78
2023-04-11T00:38:02.369Z,97444.25
2023-04-11T00:40:36.847Z,97429.81
2023-04-11T00:43:09.950Z,97438.19
2023-04-11T00:45:43.092Z,97427.75
2023-04-11T00:48:17.055Z,97423.28
2023-04-11T00:50:49.999Z,97439.50
2023-04-11T00:53:23.817Z,97452.34
2023-04-11T00:55:58.153Z,97449.75
2023-04-11T00:58:32.086Z,97439.75
2023-04-11T01:01:09.234Z,97438.25
2023-04-11T01:03:42.695Z,97429.47
2023-04-11T01:06:18.221Z,97427.91
2023-04-11T01:08:51.726Z,97433.31
2023-04-11T01:11:26.988Z,97435.78
2023-04-11T01:14:00.148Z,97437.91
2023-04-11T01:16:33.233Z,97421.59
2023-04-11T01:19:08.080Z,97426.41
2023-04-11T01:21:41.487Z,97434.88
2023-04-11T01:24:16.118Z,97440.63
2023-04-11T01:26:49.256Z,97427.34
2023-04-11T01:29:22.281Z,97421.97
2023-04-11T01:31:55.703Z,97430.28
2023-04-11T01:34:29.616Z,97428.97
2023-04-11T01:37:02.795Z,97428.22
2023-04-11T01:39:37.195Z,97443.47
2023-04-11T01:42:11.254Z,97431.59
2023-04-11T01:44:44.693Z,97436.97
2023-04-11T01:47:17.796Z,97422.47
2023-04-11T01:49:50.815Z,97427.94
2023-04-11T01:52:23.785Z,97420.97
2023-04-11T01:54:58.246Z,97419.78
2023-04-11T01:57:31.210Z,97415.38
2023-04-11T02:00:05.910Z,97433.69
2023-04-11T02:02:39.467Z,97446.38
2023-04-11T02:05:12.940Z,97450.19
2023-04-11T02:07:45.928Z,97438.56
2023-04-11T02:10:20.408Z,97426.13
2023-04-11T02:12:53.377Z,97422.34
2023-04-11T02:15:26.473Z,97432.59
2023-04-11T02:18:00.462Z,97431.59
2023-04-11T02:20:33.747Z,97446.66
2023-04-11T02:23:06.661Z,97439.69
2023-04-11T02:25:41.256Z,97438.69
2023-04-11T02:28:14.273Z,97447.09
2023-04-11T02:30:47.313Z,97455.66
2023-04-11T02:33:20.394Z,97469.19
2023-04-11T02:35:53.521Z,97465.63
2023-04-11T02:38:26.522Z,97463.94
2023-04-11T02:41:01.223Z,97481.56
2023-04-11T02:43:34.230Z,97494.16
2023-04-11T02:46:12.882Z,97481.66
2023-04-11T02:48:46.333Z,97493.16
2023-04-11T02:51:19.274Z,97496.00
2023-04-11T02:53:52.732Z,97510.25
2023-04-11T02:56:27.144Z,97510.81
2023-04-11T02:59:00.203Z,97511.19
2023-04-11T03:01:33.624Z,97519.03
2023-04-11T03:04:07.207Z,97512.31
2023-04-11T03:06:40.755Z,97494.88
2023-04-11T03:09:13.846Z,97499.84
2023-04-11T03:11:48.385Z,97505.53
2023-04-11T03:14:21.441Z,97507.78
2023-04-11T03:16:54.421Z,97507.09
2023-04-11T03:19:27.418Z,97498.59
2023-04-11T03:22:02.593Z,97506.53
2023-04-11T03:24:35.563Z,97520.06
2023-04-11T03:27:10.034Z,97530.66
2023-04-11T03:29:42.986Z,97527.53
2023-04-11T03:32:16.082Z,97523.75
2023-04-11T03:34:49.142Z,97516.75
2023-04-11T03:37:22.184Z,97526.16
2023-04-11T03:39:55.170Z,97517.31
2023-04-11T03:42:29.542Z,97516.28
2023-04-11T03:45:02.717Z,97523.09
2023-04-11T03:47:35.974Z,97532.59
2023-04-11T03:50:10.018Z,97526.66
2023-04-11T03:52:43.020Z,97536.94
2023-04-11T03:55:16.015Z,97523.00
2023-04-11T03:57:50.621Z,97530.66
2023-04-11T04:00:23.785Z,97531.47
2023-04-11T04:02:57.129Z,97523.00
2023-04-11T04:05:30.220Z,97527.28
2023-04-11T04:08:03.700Z,97519.00
2023-04-11T04:10:36.715Z,97521.25
2023-04-11T04:13:11.466Z,97510.06
2023-04-11T04:15:44.451Z,97506.53
2023-04-11T04:18:17.418Z,97506.69
2023-04-11T04:20:50.737Z,97519.31
2023-04-11T04:23:23.939Z,97503.97
2023-04-11T04:25:58.207Z,97492.19
2023-04-11T04:28:32.687Z,97504.94
2023-04-11T04:31:08.485Z,97500.16
2023-04-11T04:33:42.768Z,97516.91
2023-04-11T04:36:17.915Z,97529.13
2023-04-11T04:38:50.947Z,97527.13
2023-04-11T04:41:24.104Z,97537.84
2023-04-11T04:43:58.555Z,97546.81
2023-04-11T04:46:36.706Z,97549.00
2023-04-11T04:49:10.237Z,97558.91
2023-04-11T04:51:43.222Z,97564.13
2023-04-11T04:54:19.403Z,97554.53
2023-04-11T04:56:52.518Z,97577.75
2023-04-11T04:59:26.817Z,97570.94
2023-04-11T05:01:59.916Z,97577.47
2023-04-11T05:04:34.345Z,97583.66
2023-04-11T05:07:07.365Z,97589.28
2023-04-11T05:09:40.363Z,97594.94
2023-04-11T05:12:13.918Z,97590.03
2023-04-11T05:14:48.544Z,97596.09
2023-04-11T05:17:22.741Z,97605.63
2023-04-11T05:19:56.968Z,97609.09
2023-04-11T05:22:29.913Z,97623.59
2023-04-11T05:25:03.559Z,97632.66
2023-04-11T05:27:36.525Z,97643.03
2023-04-11T05:30:12.624Z,97648.44
2023-04-11T05:32:46.453Z,97654.31
2023-04-11T05:35:19.470Z,97660.91
2023-04-11T05:37:52.494Z,97662.09
2023-04-11T05:40:25.420Z,97664.00
2023-04-11T05:42:58.459Z,97652.94
2023-04-11T05:45:32.850Z,97667.88
2023-04-11T05:48:07.900Z,97667.97
2023-04-11T05:50:41.283Z,97674.69
2023-04-11T05:53:14.375Z,97674.75
2023-04-11T05:55:47.369Z,97685.66
2023-04-11T05:58:20.268Z,97693.66
2023-04-11T06:00:54.940Z,97692.50
2023-04-11T06:03:28.232Z,97682.22
2023-04-11T06:06:01.816Z,97692.66
2023-04-11T06:08:35.327Z,97686.66
2023-04-11T06:11:08.687Z,97679.19
2023-04-11T06:13:41.646Z,97684.53
2023-04-11T06:16:16.327Z,97699.31
2023-04-11T06:18:49.325Z,97701.78
2023-04-11T06:21:22.244Z,97718.13
2023-04-11T06:23:55.453Z,97718.81
2023-04-11T06:26:28.519Z,97714.19
2023-04-11T06:29:04.417Z,97718.13
2023-04-11T06:31:38.775Z,97730.38
2023-04-11T06:34:12.342Z,97727.38
2023-04-11T06:36:48.109Z,97718.94
2023-04-11T06:39:21.839Z,97712.28
2023-04-11T06:41:54.761Z,97721.69
2023-04-11T06:44:27.833Z,97722.66
2023-04-11T06:47:03.162Z,97724.59
2023-04-11T06:49:36.254Z,97725.03
2023-04-11T06:52:09.254Z,97728.72
2023-04-11T06:54:42.297Z,97727.25
2023-04-11T06:57:15.298Z,97724.97
2023-04-11T06:59:48.242Z,97739.75
2023-04-11T07:02:24.929Z,97743.16
2023-04-11T07:04:58.249Z,97739.38
2023-04-11T07:07:31.330Z,97737.53
2023-04-11T07:10:04.976Z,97743.72
2023-04-11T07:12:37.958Z,97749.56
2023-04-11T07:15:12.042Z,97750.06
2023-04-11T07:17:50.215Z,97743.06
2023-04-11T07:20:24.414Z,97746.63
2023-04-11T07:22:57.351Z,97756.75
2023-04-11T07:25:33.375Z,97758.97
2023-04-11T07:28:08.430Z,97754.03
2023-04-11T07:30:42.433Z,97753.59
2023-04-11T07:33:16.740Z,97764.34
2023-04-11T07:35:49.775Z,97768.28
2023-04-11T07:38:29.306Z,97760.47
2023-04-11T07:41:04.018Z,97771.88
2023-04-11T07:43:37.327Z,97775.56
2023-04-11T07:46:10.350Z,97786.63
2023-04-11T07:48:44.646Z,97768.72
2023-04-11T07:51:18.938Z,97772.88
2023-04-11T07:53:51.882Z,97760.91
2023-04-11T07:56:24.857Z,97767.66
2023-04-11T07:58:58.562Z,97762.59
2023-04-11T08:01:32.023Z,97765.22
2023-04-11T08:04:06.523Z,97776.41
2023-04-11T08:06:39.529Z,97774.41
2023-04-11T08:09:12.449Z,97778.44
2023-04-11T08:11:45.571Z,97769.09
2023-04-11T08:14:18.518Z,97763.66
2023-04-11T08:16:53.932Z,97778.03
2023-04-11T08:19:28.369Z,97775.38
2023-04-11T08:22:01.322Z,97772.44
2023-04-11T08:24:34.272Z,97782.28
2023-04-11T08:27:07.222Z,97782.84
2023-04-11T08:29:40.252Z,97781.25
2023-04-11T08:32:13.512Z,97772.97
2023-04-11T08:34:47.802Z,97780.66
2023-04-11T08:37:20.751Z,97778.00
2023-04-11T08:39:53.727Z,97788.16
2023-04-11T08:42:28.501Z,97776.69
2023-04-11T08:45:04.051Z,97782.44
2023-04-11T08:47:37.774Z,97793.91
2023-04-11T08:50:12.895Z,97789.91
2023-04-11T08:52:47.836Z,97792.13
2023-04-11T08:55:20.996Z,97797.09
2023-04-11T08:57:55.101Z,97796.28
2023-04-11T09:00:29.086Z,97783.91
2023-04-11T09:03:04.428Z,97783.34
2023-04-11T09:05:40.776Z,97788.63
2023-04-11T09:08:14.737Z,97785.56
2023-04-11T09:10:48.273Z,97782.78
2023-04-11T09:13:24.293Z,97788.66
2023-04-11T09:16:07.107Z,97799.78
2023-04-11T09:18:42.672Z,97791.06
2023-04-11T09:21:19.595Z,97795.41
2023-04-11T09:23:52.487Z,97782.09
2023-04-11T09:26:30.666Z,97792.38
2023-04-11T09:29:03.586Z,97792.44
2023-04-11T09:31:45.545Z,97794.41
2023-04-11T09:34:27.492Z,97789.63
2023-04-11T09:37:02.133Z,97783.16
2023-04-11T09:39:35.167Z,97768.50
2023-04-11T09:42:26.104Z,97769.94
2023-04-11T09:44:59.017Z,97769.28
2023-04-11T09:47:34.005Z,97780.22
2023-04-11T09:50:08.476Z,97772.50
2023-04-11T09:52:45.048Z,97776.00
2023-04-11T09:55:21.953Z,97776.88
2023-04-11T09:57:55.742Z,97765.34
2023-04-11T10:00:30.189Z,97773.94
2023-04-11T10:03:03.512Z,97773.91
2023-04-11T10:05:36.689Z,97780.28
2023-04-11T10:08:20.052Z,97783.31
2023-04-11T10:10:54.113Z,97796.69
2023-04-11T10:13:41.194Z,97788.22
2023-04-11T10:16:16.155Z,97797.63
2023-04-11T10:19:27.150Z,97798.78
2023-04-11T10:22:00.141Z,97785.66
2023-04-11T10:24:34.489Z,97789.84
2023-04-11T10:27:07.775Z,97782.25
2023-04-11T10:29:52.438Z,97779.69
2023-04-11T10:32:26.209Z,97785.09
2023-04-11T10:35:24.694Z,97775.28
2023-04-11T10:37:57.688Z,97773.84
2023-04-11T10:40:31.979Z,97780.09
2023-04-11T10:43:20.821Z,97791.91
2023-04-11T10:46:19.356Z,97791.56
2023-04-11T10:49:01.549Z,97794.34
2023-04-11T10:51:35.719Z,97785.75
2023-04-11T10:54:26.297Z,97786.34
2023-04-11T10:57:00.676Z,97778.06
2023-04-11T11:00:09.022Z,97799.16
2023-04-11T11:02:42.926Z,97781.88
2023-04-11T11:05:22.291Z,97792.91
2023-04-11T11:07:55.502Z,97784.75
2023-04-11T11:10:42.991Z,97794.34
2023-04-11T11:13:18.151Z,97795.88
2023-04-11T11:15:51.588Z,97804.66
2023-04-11T11:18:24.645Z,97802.72
2023-04-11T11:20:57.681Z,97801.50
2023-04-11T11:23:30.796Z,97804.53
2023-04-11T11:26:03.904Z,97805.28
2023-04-11T11:28:48.889Z,97810.28
2023-04-11T11:31:22.183Z,97814.28
2023-04-11T11:33:58.307Z,97802.47
2023-04-11T11:36:41.311Z,97802.75
2023-04-11T11:39:15.550Z,97820.84
2023-04-11T11:41:49.056Z,97806.47
2023-04-11T11:44:29.061Z,97813.94
2023-04-11T11:47:03.299Z,97798.09
2023-04-11T11:49:50.320Z,97805.81
2023-04-11T11:52:33.692Z,97804.09
2023-04-11T11:55:11.426Z,97804.81
2023-04-11T11:57:46.266Z,97798.25
2023-04-11T12:00:27.782Z,97793.81
2023-04-11T12:03:03.999Z,97799.28
2023-04-11T12:05:37.850Z,97803.28
2023-04-11T12:08:11.090Z,97796.16
2023-04-11T12:10:47.310Z,97803.22
2023-04-11T12:13:22.604Z,97810.97
2023-04-11T12:15:59.017Z,97795.41
2023-04-11T12:18:31.998Z,97797.03
2023-04-11T12:21:05.573Z,97798.00
2023-04-11T12:23:38.544Z,97798.72
2023-04-11T12:26:11.508Z,97799.06
2023-04-11T12:28:44.461Z,97805.63
2023-04-11T12:31:20.053Z,97797.22
2023-04-11T12:33:53.175Z,97817.09
2023-04-11T12:36:27.598Z,97819.59
2023-04-11T12:39:00.628Z,97816.97
2023-04-11T12:41:33.598Z,97809.72
2023-04-11T12:44:06.780Z,97817.81
2023-04-11T12:46:41.139Z,97806.03
2023-04-11T12:49:14.148Z,97808.50
2023-04-11T12:51:47.104Z,97807.63
2023-04-11T12:54:20.033Z,97827.28
2023-04-11T12:56:52.979Z,97821.16
2023-04-11T12:59:26.721Z,97809.59
2023-04-11T13:02:01.229Z,97807.25
2023-04-11T13:04:34.676Z,97810.19
2023-04-11T13:07:07.774Z,97810.47
2023-04-11T13:09:40.880Z,97805.16
2023-04-11T13:12:13.843Z,97814.22
2023-04-11T13:14:46.897Z,97804.53
2023-04-11T13:17:22.224Z,97795.97
2023-04-11T13:19:55.543Z,97796.41
2023-04-11T13:22:28.594Z,97806.34
2023-04-11T13:25:01.684Z,97804.34
2023-04-11T13:27:34.781Z,97794.63
2023-04-11T13:30:10.505Z,97791.56
2023-04-11T13:32:44.895Z,97801.06
2023-04-11T13:35:17.956Z,97803.75
2023-04-11T13:37:51.882Z,97804.44
2023-04-11T13:40:24.919Z,97791.53
2023-04-11T13:42:57.944Z,97798.09
2023-04-11T13:45:31.115Z,97805.06
2023-04-11T13:48:06.016Z,97799.69
2023-04-11T13:50:39.400Z,97786.97
2023-04-11T13:53:12.431Z,97796.47
2023-04-11T13:55:48.317Z,97798.06
2023-04-11T13:58:21.570Z,97807.56
2023-04-11T14:00:55.371Z,97792.47
2023-04-11T14:03:33.600Z,97790.78
2023-04-11T14:06:08.951Z,97787.47
2023-04-11T14:08:42.056Z,97794.16
2023-04-11T14:11:15.036Z,97790.81
2023-04-11T14:13:48.088Z,97786.59
2023-04-11T14:16:21.121Z,97779.22
2023-04-11T14:18:55.745Z,97793.09
2023-04-11T14:21:29.035Z,97793.47
2023-04-11T14:24:02.286Z,97795.13
2023-04-11T14:26:35.556Z,97799.53
2023-04-11T14:29:09.163Z,97787.59
2023-04-11T14:31:42.247Z,97793.81
2023-04-11T14:34:18.540Z,97789.75
2023-04-11T14:36:51.833Z,97794.75
2023-04-11T14:39:24.862Z,97796.03
2023-04-11T14:41:57.857Z,97795.84
2023-04-11T14:44:30.876Z,97793.81
2023-04-11T14:47:03.976Z,97790.78
2023-04-11T14:49:38.261Z,97779.00
2023-04-11T14:52:11.395Z,97779.84
2023-04-11T14:54:45.824Z,97779.63
2023-04-11T14:57:18.831Z,97783.44
2023-04-11T14:59:51.821Z,97785.50
2023-04-11T15:02:24.982Z,97785.84
2023-04-11T15:04:59.422Z,97778.81
2023-04-11T15:07:32.502Z,97777.31
2023-04-11T15:10:07.189Z,97786.09
2023-04-11T15:12:40.343Z,97779.63
2023-04-11T15:15:14.083Z,97778.34
2023-04-11T15:17:48.912Z,97773.22
2023-04-11T15:20:24.307Z,97766.66
2023-04-11T15:22:57.257Z,97778.03
2023-04-11T15:25:30.428Z,97780.19
2023-04-11T15:28:04.983Z,97770.84
2023-04-11T15:30:48.240Z,97775.25
2023-04-11T15:33:24.041Z,97776.38
2023-04-11T15:36:00.302Z,97770.06
2023-04-11T15:38:33.713Z,97775.09
2023-04-11T15:41:07.588Z,97765.47
2023-04-11T15:43:41.075Z,97766.75
2023-04-11T15:46:14.109Z,97765.69
2023-04-11T15:48:47.091Z,97765.97
2023-04-11T15:51:21.530Z,97763.63
2023-04-11T15:53:54.924Z,97765.13
2023-04-11T15:56:28.544Z,97758.16
2023-04-11T15:59:01.642Z,97763.00
2023-04-11T16:01:36.294Z,97763.34
2023-04-11T16:04:11.329Z,97762.91
2023-04-11T16:06:45.686Z,97768.38
2023-04-11T16:09:18.880Z,97759.34
2023-04-11T16:11:51.845Z,97762.88
2023-04-11T16:14:25.150Z,97756.09
2023-04-11T16:16:58.480Z,97758.47
2023-04-11T16:19:31.418Z,97764.13
2023-04-11T16:22:06.236Z,97757.19
2023-04-11T16:24:39.317Z,97747.41
2023-04-11T16:27:12.367Z,97750.69
2023-04-11T16:29:45.835Z,97752.78
2023-04-11T16:32:18.873Z,97755.50
2023-04-11T16:34:54.794Z,97748.34
2023-04-11T16:37:29.165Z,97749.50
2023-04-11T16:40:02.325Z,97757.19
2023-04-11T16:42:35.438Z,97758.63
2023-04-11T16:45:10.494Z,97752.31
2023-04-11T16:47:43.603Z,97749.72
2023-04-11T16:50:17.851Z,97750.44
2023-04-11T16:52:52.370Z,97747.78
2023-04-11T16:55:25.452Z,97744.84
2023-04-11T16:57:58.456Z,97749.84
2023-04-11T17:00:31.523Z,97747.88
2023-04-11T17:03:05.819Z,97744.56
2023-04-11T17:05:39.118Z,97737.44
2023-04-11T17:08:14.642Z,97743.16
2023-04-11T17:10:47.679Z,97739.78
2023-04-11T17:13:20.818Z,97742.81
2023-04-11T17:15:54.361Z,97739.44
2023-04-11T17:18:27.371Z,97735.84
2023-04-11T17:21:00.971Z,97734.34
2023-04-11T17:23:42.373Z,97720.78
2023-04-11T17:26:17.015Z,97726.78
2023-04-11T17:28:50.984Z,97726.22
2023-04-11T17:31:27.540Z,97731.56
2023-04-11T17:34:00.730Z,97733.84
2023-04-11T17:36:33.779Z,97728.44
2023-04-11T17:39:08.211Z,97739.19
2023-04-11T17:41:41.280Z,97732.88
2023-04-11T17:44:14.655Z,97735.78
2023-04-11T17:46:47.740Z,97731.34
2023-04-11T17:49:21.581Z,97730.81
2023-04-11T17:51:59.100Z,97738.19
2023-04-11T17:54:34.022Z,97737.94
2023-04-11T17:57:07.620Z,97727.88
2023-04-11T17:59:40.648Z,97732.75
2023-04-11T18:02:13.904Z,97738.38
2023-04-11T18:04:46.950Z,97734.72
2023-04-11T18:07:24.348Z,97736.88
2023-04-11T18:09:58.793Z,97739.81
2023-04-11T18:12:32.725Z,97740.38
2023-04-11T18:15:07.225Z,97741.75
2023-04-11T18:17:42.320Z,97742.22
2023-04-11T18:20:16.243Z,97740.31
2023-04-11T18:22:51.515Z,97748.06
2023-04-11T18:25:25.984Z,97747.31
2023-04-11T18:27:58.988Z,97753.69
2023-04-11T18:30:32.032Z,97752.22
2023-04-11T18:33:05.314Z,97744.94
2023-04-11T18:35:38.365Z,97746.72
2023-04-11T18:38:11.498Z,97748.16
2023-04-11T18:40:46.218Z,97743.72
2023-04-11T18:43:19.521Z,97744.38
2023-04-11T18:45:52.635Z,97745.94
2023-04-11T18:48:25.852Z,97757.31
2023-04-11T18:51:00.558Z,97764.88
2023-04-11T18:53:34.878Z,97769.28
2023-04-11T18:56:09.850Z,97766.38
2023-04-11T18:58:45.792Z,97777.81
2023-04-11T19:01:19.526Z,97767.88
2023-04-11T19:03:55.106Z,97775.59
2023-04-11T19:06:28.295Z,97775.41
2023-04-11T19:09:02.244Z,97773.97
2023-04-11T19:11:38.411Z,97759.38
2023-04-11T19:14:11.505Z,97760.44
2023-04-11T19:16:46.354Z,97757.75
2023-04-11T19:19:19.509Z,97754.03
2023-04-11T19:21:52.651Z,97756.91
2023-04-11T19:24:25.642Z,97742.81
2023-04-11T19:27:00.252Z,97743.16
2023-04-11T19:29:33.237Z,97742.59
2023-04-11T19:32:06.672Z,97741.03
2023-04-11T19:34:39.764Z,97749.63
2023-04-11T19:37:13.917Z,97755.41
2023-04-11T19:39:46.929Z,97745.09
2023-04-11T19:42:22.612Z,97740.06
2023-04-11T19:44:55.734Z,97736.56
2023-04-11T19:47:28.806Z,97751.97
2023-04-11T19:50:02.473Z,97738.97
2023-04-11T19:52:35.699Z,97729.28
2023-04-11T19:55:10.355Z,97716.72
2023-04-11T19:57:44.752Z,97725.69
2023-04-11T20:00:19.370Z,97732.13
2023-04-11T20:02:52.983Z,97731.03
2023-04-11T20:05:27.905Z,97720.50
2023-04-11T20:08:00.985Z,97722.13
2023-04-11T20:10:34.169Z,97720.19
2023-04-11T20:13:08.706Z,97728.22
2023-04-11T20:15:41.758Z,97726.84
2023-04-11T20:18:16.079Z,97723.50
2023-04-11T20:20:49.113Z,97721.75
2023-04-11T20:23:22.177Z,97720.22
2023-04-11T20:25:55.254Z,97716.88
2023-04-11T20:28:30.407Z,97716.38
2023-04-11T20:31:04.655Z,97717.06
2023-04-11T20:33:37.830Z,97715.19
2023-04-11T20:36:11.128Z,97712.47
2023-04-11T20:38:44.254Z,97711.38
2023-04-11T20:41:19.105Z,97702.16
2023-04-11T20:43:53.657Z,97704.13
2023-04-11T20:46:30.000Z,97700.41
2023-04-11T20:49:03.856Z,97691.81
2023-04-11T20:51:37.499Z,97701.00
2023-04-11T20:54:10.912Z,97685.91
2023-04-11T20:56:44.200Z,97682.72
2023-04-11T20:59:18.614Z,97675.84
2023-04-11T21:01:53.594Z,97668.13
2023-04-11T21:04:28.208Z,97664.59
2023-04-11T21:07:01.725Z,97657.34
2023-04-11T21:09:34.783Z,97659.97
2023-04-11T21:12:08.399Z,97662.25
2023-04-11T21:14:43.066Z,97661.63
2023-04-11T21:17:16.106Z,97661.53
2023-04-11T21:19:49.092Z,97659.75
2023-04-11T21:22:22.141Z,97657.22
2023-04-11T21:24:55.169Z,97659.69
2023-04-11T21:27:28.291Z,97649.03
2023-04-11T21:30:02.700Z,97645.41
2023-04-11T21:32:35.860Z,97642.56
2023-04-11T21:35:11.677Z,97648.31
2023-04-11T21:37:46.001Z,97648.91
2023-04-11T21:40:20.828Z,97640.50
2023-04-11T21:42:55.532Z,97642.84
2023-04-11T21:45:29.985Z,97641.09
2023-04-11T21:48:03.057Z,97636.47
2023-04-11T21:50:36.910Z,97623.97
2023-04-11T21:53:09.925Z,97624.84
2023-04-11T21:55:47.021Z,97624.84
2023-04-11T21:58:29.212Z,97615.28
2023-04-11T22:01:04.805Z,97615.06
2023-04-11T22:03:41.313Z,97604.31
2023-04-11T22:06:14.514Z,97603.75
2023-04-11T22:08:50.463Z,97600.41
2023-04-11T22:11:23.649Z,97592.00
2023-04-11T22:13:58.299Z,97592.09
2023-04-11T22:16:33.706Z,97584.06
2023-04-11T22:19:07.089Z,97573.50
2023-04-11T22:21:40.684Z,97568.09
2023-04-11T22:24:13.786Z,97562.06
2023-04-11T22:26:49.008Z,97566.16
2023-04-11T22:29:22.280Z,97569.59
2023-04-11T22:31:57.238Z,97562.72
2023-04-11T22:34:30.554Z,97564.13
2023-04-11T22:37:03.657Z,97541.31
2023-04-11T22:39:37.347Z,97533.50
2023-04-11T22:42:11.564Z,97532.81
2023-04-11T22:44:44.618Z,97523.81
2023-04-11T22:47:21.755Z,97524.88
2023-04-11T22:49:54.870Z,97526.06
2023-04-11T22:52:30.138Z,97511.22
2023-04-11T22:55:04.678Z,97503.38
2023-04-11T22:57:38.065Z,97492.94
2023-04-11T23:00:16.209Z,97491.66
2023-04-11T23:02:51.133Z,97489.09
2023-04-11T23:05:24.787Z,97488.19
2023-04-11T23:07:57.952Z,97486.19
2023-04-11T23:10:31.021Z,97487.13
2023-04-11T23:13:04.035Z,97488.00
2023-04-11T23:15:37.333Z,97477.81
2023-04-11T23:18:12.534Z,97483.78
2023-04-11T23:20:47.539Z,97477.78
2023-04-11T23:23:20.765Z,97483.28
2023-04-11T23:25:54.237Z,97481.34
2023-04-11T23:28:27.382Z,97475.88
2023-04-11T23:31:00.540Z,97475.88
2023-04-11T23:33:35.343Z,97470.78
2023-04-11T23:36:09.699Z,97470.88
2023-04-11T23:38:42.759Z,97470.13
2023-04-11T23:41:15.778Z,97465.34
2023-04-11T23:43:48.866Z,97468.63
2023-04-11T23:46:22.008Z,97457.22
2023-04-11T23:48:56.584Z,97455.66
2023-04-11T23:51:29.614Z,97452.00
2023-04-11T23:54:02.624Z,97449.75
2023-04-11T23:56:35.710Z,97427.81
2023-04-11T23:59:08.781Z,97451.06
